10chiemaru — JD2376 — position and weather

sailwx.info

Track history (hours):
 
Tides and Currents Weather Stations Pressure Air Temp Water Temp Dewpoint Dewpoint Depression Visibility Wind Speed Wind Dir Waves Ship Positions

10chiemaru

Last reported at 2014-Aug-21 11:33 UTC. Time now 2014-Aug-21 14:08 UTC.
Position N 34°57' E 139°21'.

Length 72 m; draft 3.7 m.

Type: Ship. MMSI: 431000147.

Date/timePositionNaut miles runAvg speedWind from/ knotsBaromVisibWave heightAir tempDewpointWater temp
2014-Aug-21 11:33N 34°57' E 139°21'1211.8
2014-Aug-21 10:33N 35°03' E 139°33'1212.0
2014-Aug-21 09:33N 35°10' E 139°45'1211.7
2014-Aug-21 08:34N 35°22' E 139°42'1211.5
2014-Aug-21 07:34N 35°30' E 139°52'1110.7
2014-Aug-21 06:34N 35°40' E 139°57'1 0.9
2014-Aug-21 05:34N 35°41' E 139°56'0 0.0
2014-Aug-21 04:34N 35°41' E 139°56'0 0.0
2014-Aug-21 03:34N 35°41' E 139°56'0 0.0
2014-Aug-21 02:34N 35°41' E 139°56'0 0.0
2014-Aug-21 01:33N 35°41' E 139°56'2 2.0
2014-Aug-21 00:34N 35°39' E 139°58'5 5.0
2014-Aug-20 23:33N 35°35' E 139°55'0 0.0
2014-Aug-20 22:33N 35°35' E 139°55'0 0.0
2014-Aug-20 21:34N 35°35' E 139°55'0 0.0
2014-Aug-20 20:33N 35°35' E 139°55'0 0.0
2014-Aug-20 19:34N 35°35' E 139°55'0 0.1
2014-Aug-20 18:34N 35°35' E 139°55'0 0.0
2014-Aug-20 17:33N 35°35' E 139°55'0 0.0
2014-Aug-20 16:34N 35°35' E 139°55'0 0.0
2014-Aug-20 15:33N 35°35' E 139°55'0 0.0
2014-Aug-20 14:34N 35°35' E 139°55'3 3.5
2014-Aug-20 13:34N 35°32' E 139°53'1212.0
2014-Aug-20 12:34N 35°21' E 139°45'1111.4
2014-Aug-20 11:33N 35°10' E 139°46'1212.0
2014-Aug-20 10:34N 34°59' E 139°43'55 8.9
2014-Aug-20 04:25N 35°25' E 140°41'34 0.7
2014-Aug-18 03:21N 35°60' E 140°43'5 6.6
2014-Aug-18 02:33N 35°55' E 140°41'0 0.0
2014-Aug-18 01:33N 35°55' E 140°41'0 0.0
2014-Aug-18 00:33N 35°55' E 140°41'2 0.4
2014-Aug-17 18:14N 35°57' E 140°42'0 0.0
2014-Aug-17 17:33N 35°57' E 140°42'0 0.0
2014-Aug-17 16:03N 35°57' E 140°42'0 0.1
2014-Aug-17 15:33N 35°57' E 140°42'0 0.0
2014-Aug-17 14:33N 35°57' E 140°42'0 0.0
2014-Aug-17 13:33N 35°57' E 140°42'0 0.0
2014-Aug-17 12:33N 35°57' E 140°42'0 0.0
2014-Aug-17 11:23N 35°57' E 140°42'0 0.0
2014-Aug-17 10:33N 35°57' E 140°42'0 0.0
2014-Aug-17 09:22N 35°57' E 140°42'3 0.1
2014-Aug-16 10:33N 35°60' E 140°43'6 4.3
2014-Aug-16 09:14N 35°55' E 140°41'0 0.0
2014-Aug-16 06:04N 35°55' E 140°41'5 1.4
2014-Aug-16 02:26N 35°59' E 140°43'5 0.9
2014-Aug-15 21:29N 35°55' E 140°46'4310.7
2014-Aug-15 17:27N 35°14' E 140°32'1714.8
2014-Aug-15 16:18N 35°02' E 140°17'1013.3
2014-Aug-15 15:31N 34°56' E 140°07'1212.7
2014-Aug-15 14:33N 34°50' E 139°53'1312.8
2014-Aug-15 13:33N 34°50' E 139°38'48 7.7
2014-Aug-15 07:23N 35°04' E 138°42'8 1.3
2014-Aug-15 01:23N 35°03' E 138°33'0 0.2
2014-Aug-14 23:06N 35°03' E 138°32'1 0.0
2014-Aug-12 22:12N 35°03' E 138°34'1 0.9
2014-Aug-12 20:32N 35°03' E 138°32'0 0.0
2014-Aug-12 19:32N 35°03' E 138°32'0 0.0
2014-Aug-12 18:33N 35°03' E 138°32'0 0.0
2014-Aug-12 16:20N 35°03' E 138°32'0 0.0
2014-Aug-12 15:11N 35°03' E 138°32'35 6.2
2014-Aug-12 09:33N 34°50' E 139°12'1212.2
2014-Aug-12 08:32N 34°58' E 139°23'1212.2
2014-Aug-12 07:33N 35°04' E 139°36'1211.6
2014-Aug-12 06:33N 35°12' E 139°46'1110.6
2014-Aug-12 05:33N 35°22' E 139°42'9 8.6
2014-Aug-12 04:33N 35°29' E 139°49'3 3.1
2014-Aug-12 03:33N 35°30' E 139°45'0 0.0
2014-Aug-12 02:33N 35°30' E 139°45'0 0.0
2014-Aug-12 01:34N 35°30' E 139°45'0 0.0
2014-Aug-12 00:33N 35°30' E 139°45'7 6.7
2014-Aug-11 23:33N 35°30' E 139°53'1 0.8
2014-Aug-11 22:34N 35°29' E 139°54'0 0.0
2014-Aug-11 21:33N 35°29' E 139°54'0 0.0
2014-Aug-11 20:34N 35°29' E 139°54'0 0.0
2014-Aug-11 19:34N 35°29' E 139°54'0 0.0
2014-Aug-11 18:33N 35°29' E 139°54'0 0.0
2014-Aug-11 17:33N 35°29' E 139°54'0 0.0
2014-Aug-11 16:33N 35°29' E 139°54'0 0.0
2014-Aug-11 15:31N 35°29' E 139°54'0 0.0
2014-Aug-11 14:33N 35°29' E 139°54'0 0.1
2014-Aug-11 13:33N 35°29' E 139°54'0 0.0
2014-Aug-11 12:32N 35°29' E 139°54'0 0.1
2014-Aug-11 11:33N 35°29' E 139°54'  
Track history (hours):
 
Tides and Currents Weather Stations Pressure Air Temp Water Temp Dewpoint Dewpoint Depression Visibility Wind Speed Wind Dir Waves Ship Positions

10chiemaru

Last reported at 2014-Aug-21 11:33 UTC. Time now 2014-Aug-21 14:08 UTC.
Position N 34°57' E 139°21'.

Length 72 m; draft 3.7 m.

Type: Ship. MMSI: 431000147.

Date/timePositionNaut miles runAvg speedWind from/ knotsBaromVisibWave heightAir tempDewpointWater temp
2014-Aug-21 11:33N 34°57' E 139°21'1211.8
2014-Aug-21 10:33N 35°03' E 139°33'1212.0
2014-Aug-21 09:33N 35°10' E 139°45'1211.7
2014-Aug-21 08:34N 35°22' E 139°42'1211.5
2014-Aug-21 07:34N 35°30' E 139°52'1110.7
2014-Aug-21 06:34N 35°40' E 139°57'1 0.9
2014-Aug-21 05:34N 35°41' E 139°56'0 0.0
2014-Aug-21 04:34N 35°41' E 139°56'0 0.0
2014-Aug-21 03:34N 35°41' E 139°56'0 0.0
2014-Aug-21 02:34N 35°41' E 139°56'0 0.0
2014-Aug-21 01:33N 35°41' E 139°56'2 2.0
2014-Aug-21 00:34N 35°39' E 139°58'5 5.0
2014-Aug-20 23:33N 35°35' E 139°55'0 0.0
2014-Aug-20 22:33N 35°35' E 139°55'0 0.0
2014-Aug-20 21:34N 35°35' E 139°55'0 0.0
2014-Aug-20 20:33N 35°35' E 139°55'0 0.0
2014-Aug-20 19:34N 35°35' E 139°55'0 0.1
2014-Aug-20 18:34N 35°35' E 139°55'0 0.0
2014-Aug-20 17:33N 35°35' E 139°55'0 0.0
2014-Aug-20 16:34N 35°35' E 139°55'0 0.0
2014-Aug-20 15:33N 35°35' E 139°55'0 0.0
2014-Aug-20 14:34N 35°35' E 139°55'3 3.5
2014-Aug-20 13:34N 35°32' E 139°53'1212.0
2014-Aug-20 12:34N 35°21' E 139°45'1111.4
2014-Aug-20 11:33N 35°10' E 139°46'1212.0
2014-Aug-20 10:34N 34°59' E 139°43'55 8.9
2014-Aug-20 04:25N 35°25' E 140°41'34 0.7
2014-Aug-18 03:21N 35°60' E 140°43'5 6.6
2014-Aug-18 02:33N 35°55' E 140°41'0 0.0
2014-Aug-18 01:33N 35°55' E 140°41'0 0.0
2014-Aug-18 00:33N 35°55' E 140°41'2 0.4
2014-Aug-17 18:14N 35°57' E 140°42'0 0.0
2014-Aug-17 17:33N 35°57' E 140°42'0 0.0
2014-Aug-17 16:03N 35°57' E 140°42'0 0.1
2014-Aug-17 15:33N 35°57' E 140°42'0 0.0
2014-Aug-17 14:33N 35°57' E 140°42'0 0.0
2014-Aug-17 13:33N 35°57' E 140°42'0 0.0
2014-Aug-17 12:33N 35°57' E 140°42'0 0.0
2014-Aug-17 11:23N 35°57' E 140°42'0 0.0
2014-Aug-17 10:33N 35°57' E 140°42'0 0.0
2014-Aug-17 09:22N 35°57' E 140°42'3 0.1
2014-Aug-16 10:33N 35°60' E 140°43'6 4.3
2014-Aug-16 09:14N 35°55' E 140°41'0 0.0
2014-Aug-16 06:04N 35°55' E 140°41'5 1.4
2014-Aug-16 02:26N 35°59' E 140°43'5 0.9
2014-Aug-15 21:29N 35°55' E 140°46'4310.7
2014-Aug-15 17:27N 35°14' E 140°32'1714.8
2014-Aug-15 16:18N 35°02' E 140°17'1013.3
2014-Aug-15 15:31N 34°56' E 140°07'1212.7
2014-Aug-15 14:33N 34°50' E 139°53'1312.8
2014-Aug-15 13:33N 34°50' E 139°38'48 7.7
2014-Aug-15 07:23N 35°04' E 138°42'8 1.3
2014-Aug-15 01:23N 35°03' E 138°33'0 0.2
2014-Aug-14 23:06N 35°03' E 138°32'1 0.0
2014-Aug-12 22:12N 35°03' E 138°34'1 0.9
2014-Aug-12 20:32N 35°03' E 138°32'0 0.0
2014-Aug-12 19:32N 35°03' E 138°32'0 0.0
2014-Aug-12 18:33N 35°03' E 138°32'0 0.0
2014-Aug-12 16:20N 35°03' E 138°32'0 0.0
2014-Aug-12 15:11N 35°03' E 138°32'35 6.2
2014-Aug-12 09:33N 34°50' E 139°12'1212.2
2014-Aug-12 08:32N 34°58' E 139°23'1212.2
2014-Aug-12 07:33N 35°04' E 139°36'1211.6
2014-Aug-12 06:33N 35°12' E 139°46'1110.6
2014-Aug-12 05:33N 35°22' E 139°42'9 8.6
2014-Aug-12 04:33N 35°29' E 139°49'3 3.1
2014-Aug-12 03:33N 35°30' E 139°45'0 0.0
2014-Aug-12 02:33N 35°30' E 139°45'0 0.0
2014-Aug-12 01:34N 35°30' E 139°45'0 0.0
2014-Aug-12 00:33N 35°30' E 139°45'7 6.7
2014-Aug-11 23:33N 35°30' E 139°53'1 0.8
2014-Aug-11 22:34N 35°29' E 139°54'0 0.0
2014-Aug-11 21:33N 35°29' E 139°54'0 0.0
2014-Aug-11 20:34N 35°29' E 139°54'0 0.0
2014-Aug-11 19:34N 35°29' E 139°54'0 0.0
2014-Aug-11 18:33N 35°29' E 139°54'0 0.0
2014-Aug-11 17:33N 35°29' E 139°54'0 0.0
2014-Aug-11 16:33N 35°29' E 139°54'0 0.0
2014-Aug-11 15:31N 35°29' E 139°54'0 0.0
2014-Aug-11 14:33N 35°29' E 139°54'0 0.1
2014-Aug-11 13:33N 35°29' E 139°54'0 0.0
2014-Aug-11 12:32N 35°29' E 139°54'0 0.1
2014-Aug-11 11:33N 35°29' E 139°54'  

Dump ship's entire track history